sensor_id;sensor_type;location;lat;lon;timestamp;P1;durP1;ratioP1;P2;durP2;ratioP2
8260;SDS011;64115;50.170;8.242;2023-02-15T00:01:32;25.90;;;13.63;;
8260;SDS011;64115;50.170;8.242;2023-02-15T00:04:01;31.93;;;15.07;;
8260;SDS011;64115;50.170;8.242;2023-02-15T00:06:28;29.90;;;13.30;;
8260;SDS011;64115;50.170;8.242;2023-02-15T00:08:55;27.90;;;13.13;;
8260;SDS011;64115;50.170;8.242;2023-02-15T00:11:22;21.13;;;12.67;;
8260;SDS011;64115;50.170;8.242;2023-02-15T00:14:03;30.27;;;13.37;;
8260;SDS011;64115;50.170;8.242;2023-02-15T00:16:31;23.87;;;13.10;;
8260;SDS011;64115;50.170;8.242;2023-02-15T00:18:58;26.23;;;12.97;;
8260;SDS011;64115;50.170;8.242;2023-02-15T00:21:28;27.70;;;12.80;;
8260;SDS011;64115;50.170;8.242;2023-02-15T00:23:56;27.23;;;12.43;;
8260;SDS011;64115;50.170;8.242;2023-02-15T00:26:24;36.87;;;12.53;;
8260;SDS011;64115;50.170;8.242;2023-02-15T00:28:51;35.03;;;13.93;;
8260;SDS011;64115;50.170;8.242;2023-02-15T00:31:18;42.70;;;13.03;;
8260;SDS011;64115;50.170;8.242;2023-02-15T00:33:46;40.80;;;13.13;;
8260;SDS011;64115;50.170;8.242;2023-02-15T00:36:13;31.70;;;13.03;;
8260;SDS011;64115;50.170;8.242;2023-02-15T00:38:41;48.53;;;13.97;;
8260;SDS011;64115;50.170;8.242;2023-02-15T00:41:08;41.40;;;12.80;;
8260;SDS011;64115;50.170;8.242;2023-02-15T00:43:36;74.73;;;14.77;;
8260;SDS011;64115;50.170;8.242;2023-02-15T00:46:03;48.60;;;14.23;;
8260;SDS011;64115;50.170;8.242;2023-02-15T00:48:31;54.10;;;14.27;;
8260;SDS011;64115;50.170;8.242;2023-02-15T00:50:58;58.97;;;14.10;;
8260;SDS011;64115;50.170;8.242;2023-02-15T00:53:26;59.37;;;13.43;;
8260;SDS011;64115;50.170;8.242;2023-02-15T00:55:55;33.83;;;13.23;;
8260;SDS011;64115;50.170;8.242;2023-02-15T00:58:23;35.17;;;12.13;;
8260;SDS011;64115;50.170;8.242;2023-02-15T01:00:51;37.27;;;12.73;;
8260;SDS011;64115;50.170;8.242;2023-02-15T01:03:19;40.93;;;12.63;;
8260;SDS011;64115;50.170;8.242;2023-02-15T01:05:47;37.20;;;12.93;;
8260;SDS011;64115;50.170;8.242;2023-02-15T01:08:14;42.70;;;12.67;;
8260;SDS011;64115;50.170;8.242;2023-02-15T01:10:42;28.90;;;13.17;;
8260;SDS011;64115;50.170;8.242;2023-02-15T01:13:13;33.10;;;13.13;;
8260;SDS011;64115;50.170;8.242;2023-02-15T01:15:41;29.43;;;13.03;;
8260;SDS011;64115;50.170;8.242;2023-02-15T01:18:08;29.07;;;13.17;;
8260;SDS011;64115;50.170;8.242;2023-02-15T01:20:36;23.40;;;12.33;;
8260;SDS011;64115;50.170;8.242;2023-02-15T01:23:06;21.90;;;10.97;;
8260;SDS011;64115;50.170;8.242;2023-02-15T01:25:34;20.37;;;11.47;;
8260;SDS011;64115;50.170;8.242;2023-02-15T01:28:01;17.37;;;10.43;;
8260;SDS011;64115;50.170;8.242;2023-02-15T01:30:30;16.57;;;10.20;;
8260;SDS011;64115;50.170;8.242;2023-02-15T01:32:58;18.43;;;10.63;;
8260;SDS011;64115;50.170;8.242;2023-02-15T01:35:25;18.03;;;10.90;;
8260;SDS011;64115;50.170;8.242;2023-02-15T01:37:53;16.33;;;9.03;;
8260;SDS011;64115;50.170;8.242;2023-02-15T01:40:20;18.60;;;10.87;;
8260;SDS011;64115;50.170;8.242;2023-02-15T01:42:49;20.53;;;11.20;;
8260;SDS011;64115;50.170;8.242;2023-02-15T01:45:21;25.47;;;11.17;;
8260;SDS011;64115;50.170;8.242;2023-02-15T01:47:52;18.43;;;10.77;;
8260;SDS011;64115;50.170;8.242;2023-02-15T01:50:26;37.00;;;12.13;;
8260;SDS011;64115;50.170;8.242;2023-02-15T01:52:57;62.03;;;13.10;;
8260;SDS011;64115;50.170;8.242;2023-02-15T01:55:27;49.20;;;13.00;;
8260;SDS011;64115;50.170;8.242;2023-02-15T01:57:58;57.60;;;13.60;;
8260;SDS011;64115;50.170;8.242;2023-02-15T02:00:26;69.53;;;14.43;;
8260;SDS011;64115;50.170;8.242;2023-02-15T02:02:55;50.30;;;13.50;;
8260;SDS011;64115;50.170;8.242;2023-02-15T02:05:23;60.83;;;14.80;;
8260;SDS011;64115;50.170;8.242;2023-02-15T02:07:51;60.20;;;15.73;;
8260;SDS011;64115;50.170;8.242;2023-02-15T02:10:21;61.77;;;15.60;;
8260;SDS011;64115;50.170;8.242;2023-02-15T02:12:49;53.00;;;13.40;;
8260;SDS011;64115;50.170;8.242;2023-02-15T02:15:20;78.07;;;15.23;;
8260;SDS011;64115;50.170;8.242;2023-02-15T02:17:58;122.43;;;15.07;;
8260;SDS011;64115;50.170;8.242;2023-02-15T02:20:51;46.80;;;11.27;;
8260;SDS011;64115;50.170;8.242;2023-02-15T02:23:39;90.97;;;14.37;;
8260;SDS011;64115;50.170;8.242;2023-02-15T02:26:27;63.77;;;11.57;;
8260;SDS011;64115;50.170;8.242;2023-02-15T02:29:25;26.37;;;11.63;;
8260;SDS011;64115;50.170;8.242;2023-02-15T02:35:22;21.77;;;12.13;;
8260;SDS011;64115;50.170;8.242;2023-02-15T02:37:58;19.93;;;10.93;;
8260;SDS011;64115;50.170;8.242;2023-02-15T02:40:31;29.33;;;12.27;;
8260;SDS011;64115;50.170;8.242;2023-02-15T02:43:04;41.10;;;15.73;;
8260;SDS011;64115;50.170;8.242;2023-02-15T02:45:38;28.67;;;12.37;;
8260;SDS011;64115;50.170;8.242;2023-02-15T02:48:12;29.83;;;13.57;;
8260;SDS011;64115;50.170;8.242;2023-02-15T02:50:42;33.87;;;14.17;;
8260;SDS011;64115;50.170;8.242;2023-02-15T02:53:09;32.03;;;14.30;;
8260;SDS011;64115;50.170;8.242;2023-02-15T02:55:38;33.57;;;13.63;;
8260;SDS011;64115;50.170;8.242;2023-02-15T02:58:10;39.13;;;13.33;;
8260;SDS011;64115;50.170;8.242;2023-02-15T03:00:44;32.23;;;14.27;;
8260;SDS011;64115;50.170;8.242;2023-02-15T03:03:18;29.93;;;13.87;;
8260;SDS011;64115;50.170;8.242;2023-02-15T03:05:49;49.00;;;15.53;;
8260;SDS011;64115;50.170;8.242;2023-02-15T03:08:19;37.23;;;14.93;;
8260;SDS011;64115;50.170;8.242;2023-02-15T03:10:53;62.17;;;15.40;;
8260;SDS011;64115;50.170;8.242;2023-02-15T03:13:22;86.70;;;17.80;;
8260;SDS011;64115;50.170;8.242;2023-02-15T03:15:49;55.20;;;15.07;;
8260;SDS011;64115;50.170;8.242;2023-02-15T03:18:37;41.87;;;13.63;;
8260;SDS011;64115;50.170;8.242;2023-02-15T03:21:08;41.10;;;14.27;;
8260;SDS011;64115;50.170;8.242;2023-02-15T03:23:47;25.60;;;12.43;;
8260;SDS011;64115;50.170;8.242;2023-02-15T03:26:18;38.80;;;13.30;;
8260;SDS011;64115;50.170;8.242;2023-02-15T03:28:48;27.57;;;12.40;;
8260;SDS011;64115;50.170;8.242;2023-02-15T03:31:17;29.33;;;13.57;;
8260;SDS011;64115;50.170;8.242;2023-02-15T03:33:50;29.33;;;12.17;;
8260;SDS011;64115;50.170;8.242;2023-02-15T03:36:20;35.33;;;12.57;;
8260;SDS011;64115;50.170;8.242;2023-02-15T03:38:52;45.37;;;14.10;;
8260;SDS011;64115;50.170;8.242;2023-02-15T03:41:26;23.30;;;12.50;;
8260;SDS011;64115;50.170;8.242;2023-02-15T03:43:56;18.80;;;11.50;;
8260;SDS011;64115;50.170;8.242;2023-02-15T03:46:27;22.27;;;12.57;;
8260;SDS011;64115;50.170;8.242;2023-02-15T03:49:02;21.33;;;11.50;;
8260;SDS011;64115;50.170;8.242;2023-02-15T03:51:33;21.10;;;12.10;;
8260;SDS011;64115;50.170;8.242;2023-02-15T03:54:03;19.33;;;11.37;;
8260;SDS011;64115;50.170;8.242;2023-02-15T03:56:33;17.40;;;11.87;;
8260;SDS011;64115;50.170;8.242;2023-02-15T03:59:02;24.07;;;12.10;;
8260;SDS011;64115;50.170;8.242;2023-02-15T04:01:48;21.33;;;11.33;;
8260;SDS011;64115;50.170;8.242;2023-02-15T04:04:26;28.73;;;11.13;;
8260;SDS011;64115;50.170;8.242;2023-02-15T04:06:58;34.93;;;12.93;;
8260;SDS011;64115;50.170;8.242;2023-02-15T04:09:25;20.80;;;12.03;;
8260;SDS011;64115;50.170;8.242;2023-02-15T04:12:09;19.80;;;11.87;;
8260;SDS011;64115;50.170;8.242;2023-02-15T04:14:36;26.60;;;13.53;;
8260;SDS011;64115;50.170;8.242;2023-02-15T04:17:20;23.93;;;11.60;;
8260;SDS011;64115;50.170;8.242;2023-02-15T04:19:49;19.70;;;10.47;;
8260;SDS011;64115;50.170;8.242;2023-02-15T04:22:33;19.20;;;11.43;;
8260;SDS011;64115;50.170;8.242;2023-02-15T04:25:17;23.23;;;11.83;;
8260;SDS011;64115;50.170;8.242;2023-02-15T04:27:46;25.13;;;12.97;;
8260;SDS011;64115;50.170;8.242;2023-02-15T04:30:15;25.97;;;13.30;;
8260;SDS011;64115;50.170;8.242;2023-02-15T04:32:43;27.77;;;12.87;;
8260;SDS011;64115;50.170;8.242;2023-02-15T04:35:11;29.03;;;12.87;;
8260;SDS011;64115;50.170;8.242;2023-02-15T04:37:39;27.10;;;13.27;;
8260;SDS011;64115;50.170;8.242;2023-02-15T04:40:07;20.73;;;11.40;;
8260;SDS011;64115;50.170;8.242;2023-02-15T04:42:35;26.73;;;12.30;;
8260;SDS011;64115;50.170;8.242;2023-02-15T04:45:02;24.73;;;12.73;;
8260;SDS011;64115;50.170;8.242;2023-02-15T04:47:30;29.20;;;13.70;;
8260;SDS011;64115;50.170;8.242;2023-02-15T04:49:57;33.97;;;14.30;;
8260;SDS011;64115;50.170;8.242;2023-02-15T04:52:25;124.57;;;17.03;;
8260;SDS011;64115;50.170;8.242;2023-02-15T04:54:52;29.67;;;14.50;;
8260;SDS011;64115;50.170;8.242;2023-02-15T04:57:19;30.77;;;14.93;;
8260;SDS011;64115;50.170;8.242;2023-02-15T04:59:46;27.87;;;14.33;;
8260;SDS011;64115;50.170;8.242;2023-02-15T05:02:13;25.97;;;13.40;;
8260;SDS011;64115;50.170;8.242;2023-02-15T05:04:40;30.30;;;13.40;;
8260;SDS011;64115;50.170;8.242;2023-02-15T05:07:07;27.60;;;13.50;;
8260;SDS011;64115;50.170;8.242;2023-02-15T05:09:36;34.77;;;15.60;;
8260;SDS011;64115;50.170;8.242;2023-02-15T05:12:03;35.47;;;15.40;;
8260;SDS011;64115;50.170;8.242;2023-02-15T05:14:30;37.40;;;15.23;;
8260;SDS011;64115;50.170;8.242;2023-02-15T05:16:57;39.63;;;15.83;;
8260;SDS011;64115;50.170;8.242;2023-02-15T05:19:26;55.73;;;17.30;;
8260;SDS011;64115;50.170;8.242;2023-02-15T05:21:53;43.33;;;17.03;;
8260;SDS011;64115;50.170;8.242;2023-02-15T05:24:20;42.50;;;17.40;;
8260;SDS011;64115;50.170;8.242;2023-02-15T05:27:07;47.70;;;17.17;;
8260;SDS011;64115;50.170;8.242;2023-02-15T05:29:54;260.77;;;28.53;;
8260;SDS011;64115;50.170;8.242;2023-02-15T05:32:21;140.87;;;20.40;;
8260;SDS011;64115;50.170;8.242;2023-02-15T05:34:48;63.30;;;16.73;;
8260;SDS011;64115;50.170;8.242;2023-02-15T05:37:15;37.23;;;15.50;;
8260;SDS011;64115;50.170;8.242;2023-02-15T05:39:41;38.93;;;15.63;;
8260;SDS011;64115;50.170;8.242;2023-02-15T05:42:10;36.70;;;15.93;;
8260;SDS011;64115;50.170;8.242;2023-02-15T05:44:37;35.23;;;15.10;;
8260;SDS011;64115;50.170;8.242;2023-02-15T05:47:04;33.57;;;15.57;;
8260;SDS011;64115;50.170;8.242;2023-02-15T05:49:32;34.73;;;15.70;;
8260;SDS011;64115;50.170;8.242;2023-02-15T05:51:59;43.67;;;16.33;;
8260;SDS011;64115;50.170;8.242;2023-02-15T05:54:26;56.73;;;17.23;;
8260;SDS011;64115;50.170;8.242;2023-02-15T05:56:54;41.90;;;16.23;;
8260;SDS011;64115;50.170;8.242;2023-02-15T05:59:22;41.70;;;16.30;;
8260;SDS011;64115;50.170;8.242;2023-02-15T06:01:50;36.87;;;15.93;;
8260;SDS011;64115;50.170;8.242;2023-02-15T06:04:17;38.27;;;15.40;;
8260;SDS011;64115;50.170;8.242;2023-02-15T06:06:44;163.57;;;20.17;;
8260;SDS011;64115;50.170;8.242;2023-02-15T06:09:11;57.77;;;14.17;;
8260;SDS011;64115;50.170;8.242;2023-02-15T06:11:39;31.83;;;14.20;;
8260;SDS011;64115;50.170;8.242;2023-02-15T06:14:06;38.63;;;15.87;;
8260;SDS011;64115;50.170;8.242;2023-02-15T06:16:34;41.47;;;16.00;;
8260;SDS011;64115;50.170;8.242;2023-02-15T06:19:03;45.80;;;16.30;;
8260;SDS011;64115;50.170;8.242;2023-02-15T06:21:30;44.47;;;15.20;;
8260;SDS011;64115;50.170;8.242;2023-02-15T06:23:57;41.10;;;16.50;;
8260;SDS011;64115;50.170;8.242;2023-02-15T06:26:24;37.93;;;16.93;;
8260;SDS011;64115;50.170;8.242;2023-02-15T06:28:51;49.33;;;15.17;;
8260;SDS011;64115;50.170;8.242;2023-02-15T06:31:18;50.37;;;15.00;;
8260;SDS011;64115;50.170;8.242;2023-02-15T06:33:47;57.17;;;18.20;;
8260;SDS011;64115;50.170;8.242;2023-02-15T06:36:14;51.30;;;17.70;;
8260;SDS011;64115;50.170;8.242;2023-02-15T06:38:41;48.07;;;17.27;;
8260;SDS011;64115;50.170;8.242;2023-02-15T06:41:08;51.40;;;15.53;;
8260;SDS011;64115;50.170;8.242;2023-02-15T06:43:34;39.53;;;14.00;;
8260;SDS011;64115;50.170;8.242;2023-02-15T06:46:02;85.57;;;16.13;;
8260;SDS011;64115;50.170;8.242;2023-02-15T06:48:29;70.80;;;17.50;;
8260;SDS011;64115;50.170;8.242;2023-02-15T06:50:57;59.00;;;14.67;;
8260;SDS011;64115;50.170;8.242;2023-02-15T06:53:24;36.07;;;15.67;;
8260;SDS011;64115;50.170;8.242;2023-02-15T06:55:51;31.77;;;13.90;;
8260;SDS011;64115;50.170;8.242;2023-02-15T06:58:18;28.43;;;13.43;;
8260;SDS011;64115;50.170;8.242;2023-02-15T07:00:45;27.47;;;13.10;;
8260;SDS011;64115;50.170;8.242;2023-02-15T07:03:14;26.47;;;11.77;;
8260;SDS011;64115;50.170;8.242;2023-02-15T07:05:41;23.90;;;12.37;;
8260;SDS011;64115;50.170;8.242;2023-02-15T07:08:10;28.37;;;11.93;;
8260;SDS011;64115;50.170;8.242;2023-02-15T07:10:37;30.73;;;11.90;;
8260;SDS011;64115;50.170;8.242;2023-02-15T07:13:03;36.00;;;13.73;;
8260;SDS011;64115;50.170;8.242;2023-02-15T07:15:29;25.17;;;12.17;;
8260;SDS011;64115;50.170;8.242;2023-02-15T07:17:56;24.63;;;11.60;;
8260;SDS011;64115;50.170;8.242;2023-02-15T07:20:24;21.23;;;13.23;;
8260;SDS011;64115;50.170;8.242;2023-02-15T07:22:51;25.40;;;12.60;;
8260;SDS011;64115;50.170;8.242;2023-02-15T07:25:20;29.77;;;12.77;;
8260;SDS011;64115;50.170;8.242;2023-02-15T07:27:47;30.47;;;13.47;;
8260;SDS011;64115;50.170;8.242;2023-02-15T07:30:15;28.17;;;11.90;;
8260;SDS011;64115;50.170;8.242;2023-02-15T07:32:43;20.87;;;10.73;;
8260;SDS011;64115;50.170;8.242;2023-02-15T07:35:27;19.07;;;10.80;;
8260;SDS011;64115;50.170;8.242;2023-02-15T07:37:54;20.00;;;11.10;;
8260;SDS011;64115;50.170;8.242;2023-02-15T07:40:23;19.70;;;11.50;;
8260;SDS011;64115;50.170;8.242;2023-02-15T07:42:50;21.93;;;11.67;;
8260;SDS011;64115;50.170;8.242;2023-02-15T07:45:19;20.57;;;11.57;;
8260;SDS011;64115;50.170;8.242;2023-02-15T07:47:47;21.17;;;11.00;;
8260;SDS011;64115;50.170;8.242;2023-02-15T07:50:14;21.47;;;11.23;;
8260;SDS011;64115;50.170;8.242;2023-02-15T07:52:41;23.07;;;11.23;;
8260;SDS011;64115;50.170;8.242;2023-02-15T07:55:08;21.00;;;11.53;;
8260;SDS011;64115;50.170;8.242;2023-02-15T07:57:39;21.97;;;11.03;;
8260;SDS011;64115;50.170;8.242;2023-02-15T08:00:09;23.47;;;12.83;;
8260;SDS011;64115;50.170;8.242;2023-02-15T08:02:38;23.87;;;12.13;;
8260;SDS011;64115;50.170;8.242;2023-02-15T08:05:05;25.33;;;12.10;;
8260;SDS011;64115;50.170;8.242;2023-02-15T08:07:33;23.10;;;11.37;;
8260;SDS011;64115;50.170;8.242;2023-02-15T08:10:00;25.80;;;12.77;;
8260;SDS011;64115;50.170;8.242;2023-02-15T08:12:27;25.00;;;12.87;;
8260;SDS011;64115;50.170;8.242;2023-02-15T08:14:55;23.10;;;12.40;;
8260;SDS011;64115;50.170;8.242;2023-02-15T08:17:23;24.60;;;13.37;;
8260;SDS011;64115;50.170;8.242;2023-02-15T08:19:50;27.10;;;13.43;;
8260;SDS011;64115;50.170;8.242;2023-02-15T08:22:17;24.57;;;12.87;;
8260;SDS011;64115;50.170;8.242;2023-02-15T08:24:44;22.57;;;12.60;;
8260;SDS011;64115;50.170;8.242;2023-02-15T08:27:13;22.03;;;11.60;;
8260;SDS011;64115;50.170;8.242;2023-02-15T08:29:39;21.13;;;11.13;;
8260;SDS011;64115;50.170;8.242;2023-02-15T08:32:09;18.43;;;10.67;;
8260;SDS011;64115;50.170;8.242;2023-02-15T08:34:38;20.47;;;11.67;;
8260;SDS011;64115;50.170;8.242;2023-02-15T08:37:06;17.23;;;9.43;;
8260;SDS011;64115;50.170;8.242;2023-02-15T08:39:34;14.97;;;9.70;;
8260;SDS011;64115;50.170;8.242;2023-02-15T08:42:01;17.53;;;9.60;;
8260;SDS011;64115;50.170;8.242;2023-02-15T08:44:28;16.17;;;9.97;;
8260;SDS011;64115;50.170;8.242;2023-02-15T08:46:55;19.67;;;10.57;;
8260;SDS011;64115;50.170;8.242;2023-02-15T08:49:29;20.07;;;9.60;;
8260;SDS011;64115;50.170;8.242;2023-02-15T08:51:56;31.00;;;11.67;;
8260;SDS011;64115;50.170;8.242;2023-02-15T08:54:23;16.80;;;10.53;;
8260;SDS011;64115;50.170;8.242;2023-02-15T08:56:50;17.30;;;11.13;;
8260;SDS011;64115;50.170;8.242;2023-02-15T08:59:17;14.60;;;9.50;;
8260;SDS011;64115;50.170;8.242;2023-02-15T09:01:46;12.93;;;8.77;;
8260;SDS011;64115;50.170;8.242;2023-02-15T09:04:14;14.23;;;9.43;;
8260;SDS011;64115;50.170;8.242;2023-02-15T09:06:43;14.10;;;9.53;;
8260;SDS011;64115;50.170;8.242;2023-02-15T09:09:12;13.97;;;9.63;;
8260;SDS011;64115;50.170;8.242;2023-02-15T09:11:40;11.33;;;8.10;;
8260;SDS011;64115;50.170;8.242;2023-02-15T09:14:08;9.50;;;7.40;;
8260;SDS011;64115;50.170;8.242;2023-02-15T09:16:38;11.53;;;7.87;;
8260;SDS011;64115;50.170;8.242;2023-02-15T09:19:07;10.87;;;7.93;;
8260;SDS011;64115;50.170;8.242;2023-02-15T09:21:35;9.77;;;7.17;;
8260;SDS011;64115;50.170;8.242;2023-02-15T09:24:05;9.53;;;7.20;;
8260;SDS011;64115;50.170;8.242;2023-02-15T09:26:34;9.87;;;7.67;;
8260;SDS011;64115;50.170;8.242;2023-02-15T09:29:03;14.77;;;9.47;;
8260;SDS011;64115;50.170;8.242;2023-02-15T09:31:31;14.10;;;9.23;;
8260;SDS011;64115;50.170;8.242;2023-02-15T09:33:59;12.67;;;9.17;;
8260;SDS011;64115;50.170;8.242;2023-02-15T09:36:27;14.43;;;9.40;;
8260;SDS011;64115;50.170;8.242;2023-02-15T09:38:56;14.33;;;9.40;;
8260;SDS011;64115;50.170;8.242;2023-02-15T09:41:41;15.43;;;9.87;;
8260;SDS011;64115;50.170;8.242;2023-02-15T09:44:27;13.17;;;8.93;;
8260;SDS011;64115;50.170;8.242;2023-02-15T09:47:09;13.27;;;8.93;;
8260;SDS011;64115;50.170;8.242;2023-02-15T09:49:48;11.43;;;8.40;;
8260;SDS011;64115;50.170;8.242;2023-02-15T09:52:37;12.93;;;8.37;;
8260;SDS011;64115;50.170;8.242;2023-02-15T09:55:22;9.30;;;7.20;;
8260;SDS011;64115;50.170;8.242;2023-02-15T09:58:05;11.07;;;8.10;;
8260;SDS011;64115;50.170;8.242;2023-02-15T10:00:39;9.13;;;7.80;;
8260;SDS011;64115;50.170;8.242;2023-02-15T10:03:15;12.03;;;8.77;;
8260;SDS011;64115;50.170;8.242;2023-02-15T10:05:55;11.00;;;7.60;;
8260;SDS011;64115;50.170;8.242;2023-02-15T10:11:35;12.23;;;8.70;;
8260;SDS011;64115;50.170;8.242;2023-02-15T10:14:20;11.47;;;8.30;;
8260;SDS011;64115;50.170;8.242;2023-02-15T10:17:07;8.33;;;6.83;;
8260;SDS011;64115;50.170;8.242;2023-02-15T10:19:45;9.60;;;7.37;;
8260;SDS011;64115;50.170;8.242;2023-02-15T10:22:24;8.93;;;7.20;;
8260;SDS011;64115;50.170;8.242;2023-02-15T10:25:02;9.67;;;7.60;;
8260;SDS011;64115;50.170;8.242;2023-02-15T10:27:54;10.30;;;7.67;;
8260;SDS011;64115;50.170;8.242;2023-02-15T10:30:34;9.53;;;7.37;;
8260;SDS011;64115;50.170;8.242;2023-02-15T10:33:10;10.10;;;7.67;;
8260;SDS011;64115;50.170;8.242;2023-02-15T10:35:44;10.10;;;7.90;;
8260;SDS011;64115;50.170;8.242;2023-02-15T10:38:20;9.37;;;7.30;;
8260;SDS011;64115;50.170;8.242;2023-02-15T10:41:01;10.33;;;7.90;;
8260;SDS011;64115;50.170;8.242;2023-02-15T10:43:39;11.27;;;8.00;;
8260;SDS011;64115;50.170;8.242;2023-02-15T10:46:21;9.13;;;7.10;;
8260;SDS011;64115;50.170;8.242;2023-02-15T10:49:08;8.17;;;6.80;;
8260;SDS011;64115;50.170;8.242;2023-02-15T10:51:49;9.80;;;7.77;;
8260;SDS011;64115;50.170;8.242;2023-02-15T10:54:27;9.47;;;7.60;;
8260;SDS011;64115;50.170;8.242;2023-02-15T10:57:03;9.47;;;7.50;;
8260;SDS011;64115;50.170;8.242;2023-02-15T10:59:47;10.57;;;7.77;;
8260;SDS011;64115;50.170;8.242;2023-02-15T11:02:32;10.17;;;7.17;;
8260;SDS011;64115;50.170;8.242;2023-02-15T11:05:16;8.73;;;6.63;;
8260;SDS011;64115;50.170;8.242;2023-02-15T11:07:54;9.30;;;7.20;;
8260;SDS011;64115;50.170;8.242;2023-02-15T11:10:26;8.53;;;7.07;;
8260;SDS011;64115;50.170;8.242;2023-02-15T11:12:57;9.10;;;7.10;;
8260;SDS011;64115;50.170;8.242;2023-02-15T11:15:30;8.13;;;6.33;;
8260;SDS011;64115;50.170;8.242;2023-02-15T11:18:04;7.70;;;6.57;;
8260;SDS011;64115;50.170;8.242;2023-02-15T11:20:36;9.03;;;6.50;;
8260;SDS011;64115;50.170;8.242;2023-02-15T11:23:09;6.83;;;5.93;;
8260;SDS011;64115;50.170;8.242;2023-02-15T11:25:41;6.50;;;5.80;;
8260;SDS011;64115;50.170;8.242;2023-02-15T11:28:13;7.33;;;6.03;;
8260;SDS011;64115;50.170;8.242;2023-02-15T11:30:46;6.83;;;5.60;;
8260;SDS011;64115;50.170;8.242;2023-02-15T11:33:19;6.73;;;5.80;;
8260;SDS011;64115;50.170;8.242;2023-02-15T11:35:51;7.73;;;6.40;;
8260;SDS011;64115;50.170;8.242;2023-02-15T11:38:22;8.33;;;6.17;;
8260;SDS011;64115;50.170;8.242;2023-02-15T11:40:54;8.47;;;6.23;;
8260;SDS011;64115;50.170;8.242;2023-02-15T11:43:24;8.20;;;6.40;;
8260;SDS011;64115;50.170;8.242;2023-02-15T11:45:56;8.97;;;6.43;;
8260;SDS011;64115;50.170;8.242;2023-02-15T11:48:24;11.40;;;7.93;;
8260;SDS011;64115;50.170;8.242;2023-02-15T11:50:51;9.63;;;7.03;;
8260;SDS011;64115;50.170;8.242;2023-02-15T11:53:19;11.63;;;7.60;;
8260;SDS011;64115;50.170;8.242;2023-02-15T11:55:49;12.17;;;8.00;;
8260;SDS011;64115;50.170;8.242;2023-02-15T11:58:22;10.37;;;7.90;;
8260;SDS011;64115;50.170;8.242;2023-02-15T12:00:55;14.13;;;8.87;;
8260;SDS011;64115;50.170;8.242;2023-02-15T12:03:29;11.60;;;8.43;;
8260;SDS011;64115;50.170;8.242;2023-02-15T12:06:11;13.63;;;9.20;;
8260;SDS011;64115;50.170;8.242;2023-02-15T12:08:44;14.13;;;9.00;;
8260;SDS011;64115;50.170;8.242;2023-02-15T12:11:18;14.13;;;9.43;;
8260;SDS011;64115;50.170;8.242;2023-02-15T12:13:56;17.23;;;9.57;;
8260;SDS011;64115;50.170;8.242;2023-02-15T12:16:24;13.53;;;9.40;;
8260;SDS011;64115;50.170;8.242;2023-02-15T12:18:54;12.67;;;9.23;;
8260;SDS011;64115;50.170;8.242;2023-02-15T12:21:25;12.97;;;9.37;;
8260;SDS011;64115;50.170;8.242;2023-02-15T12:23:55;14.30;;;9.40;;
8260;SDS011;64115;50.170;8.242;2023-02-15T12:26:25;14.30;;;9.37;;
8260;SDS011;64115;50.170;8.242;2023-02-15T12:28:53;15.30;;;10.37;;
8260;SDS011;64115;50.170;8.242;2023-02-15T12:31:26;15.87;;;10.03;;
8260;SDS011;64115;50.170;8.242;2023-02-15T12:34:02;12.80;;;9.40;;
8260;SDS011;64115;50.170;8.242;2023-02-15T12:36:40;14.47;;;9.90;;
8260;SDS011;64115;50.170;8.242;2023-02-15T12:39:20;13.43;;;9.90;;
8260;SDS011;64115;50.170;8.242;2023-02-15T12:41:57;14.70;;;9.90;;
8260;SDS011;64115;50.170;8.242;2023-02-15T12:44:27;15.30;;;10.60;;
8260;SDS011;64115;50.170;8.242;2023-02-15T12:46:56;14.50;;;9.97;;
8260;SDS011;64115;50.170;8.242;2023-02-15T12:49:26;15.63;;;10.20;;
8260;SDS011;64115;50.170;8.242;2023-02-15T12:51:54;15.37;;;10.70;;
8260;SDS011;64115;50.170;8.242;2023-02-15T12:54:30;14.83;;;10.30;;
8260;SDS011;64115;50.170;8.242;2023-02-15T12:57:12;13.27;;;9.80;;
8260;SDS011;64115;50.170;8.242;2023-02-15T12:59:51;14.63;;;10.67;;
8260;SDS011;64115;50.170;8.242;2023-02-15T13:02:21;13.23;;;9.87;;
8260;SDS011;64115;50.170;8.242;2023-02-15T13:04:53;14.10;;;10.63;;
8260;SDS011;64115;50.170;8.242;2023-02-15T13:07:21;15.17;;;10.30;;
8260;SDS011;64115;50.170;8.242;2023-02-15T13:09:49;12.77;;;9.97;;
8260;SDS011;64115;50.170;8.242;2023-02-15T13:12:18;13.67;;;9.63;;
8260;SDS011;64115;50.170;8.242;2023-02-15T13:14:48;14.27;;;10.03;;
8260;SDS011;64115;50.170;8.242;2023-02-15T13:17:18;15.20;;;10.80;;
8260;SDS011;64115;50.170;8.242;2023-02-15T13:19:56;14.03;;;10.73;;
8260;SDS011;64115;50.170;8.242;2023-02-15T13:22:27;11.57;;;9.53;;
8260;SDS011;64115;50.170;8.242;2023-02-15T13:25:01;13.37;;;9.53;;
8260;SDS011;64115;50.170;8.242;2023-02-15T13:27:34;13.30;;;9.87;;
8260;SDS011;64115;50.170;8.242;2023-02-15T13:30:04;13.10;;;9.37;;
8260;SDS011;64115;50.170;8.242;2023-02-15T13:32:44;12.83;;;10.13;;
8260;SDS011;64115;50.170;8.242;2023-02-15T13:35:16;13.53;;;9.73;;
8260;SDS011;64115;50.170;8.242;2023-02-15T13:37:50;13.17;;;9.43;;
8260;SDS011;64115;50.170;8.242;2023-02-15T13:40:40;12.93;;;9.17;;
8260;SDS011;64115;50.170;8.242;2023-02-15T13:43:17;12.57;;;9.50;;
8260;SDS011;64115;50.170;8.242;2023-02-15T13:45:57;13.10;;;9.60;;
8260;SDS011;64115;50.170;8.242;2023-02-15T13:48:36;16.27;;;10.50;;
8260;SDS011;64115;50.170;8.242;2023-02-15T13:51:15;14.13;;;10.13;;
8260;SDS011;64115;50.170;8.242;2023-02-15T13:54:00;14.63;;;10.40;;
8260;SDS011;64115;50.170;8.242;2023-02-15T13:56:46;14.33;;;10.30;;
8260;SDS011;64115;50.170;8.242;2023-02-15T13:59:36;16.40;;;11.00;;
8260;SDS011;64115;50.170;8.242;2023-02-15T14:08:21;16.83;;;11.10;;
8260;SDS011;64115;50.170;8.242;2023-02-15T14:11:00;17.50;;;11.00;;
8260;SDS011;64115;50.170;8.242;2023-02-15T14:16:24;15.13;;;10.47;;
8260;SDS011;64115;50.170;8.242;2023-02-15T14:19:01;14.27;;;10.13;;
8260;SDS011;64115;50.170;8.242;2023-02-15T14:21:37;13.10;;;9.70;;
8260;SDS011;64115;50.170;8.242;2023-02-15T14:24:15;13.97;;;10.53;;
8260;SDS011;64115;50.170;8.242;2023-02-15T14:26:52;15.33;;;9.70;;
8260;SDS011;64115;50.170;8.242;2023-02-15T14:29:32;13.30;;;10.10;;
8260;SDS011;64115;50.170;8.242;2023-02-15T14:32:11;15.70;;;10.87;;
8260;SDS011;64115;50.170;8.242;2023-02-15T14:34:44;16.07;;;11.43;;
8260;SDS011;64115;50.170;8.242;2023-02-15T14:37:16;17.80;;;10.97;;
8260;SDS011;64115;50.170;8.242;2023-02-15T14:39:52;16.63;;;11.73;;
8260;SDS011;64115;50.170;8.242;2023-02-15T14:42:43;15.77;;;11.27;;
8260;SDS011;64115;50.170;8.242;2023-02-15T14:45:17;18.00;;;11.17;;
8260;SDS011;64115;50.170;8.242;2023-02-15T14:47:51;14.83;;;10.40;;
8260;SDS011;64115;50.170;8.242;2023-02-15T14:50:37;15.23;;;10.63;;
8260;SDS011;64115;50.170;8.242;2023-02-15T14:53:14;16.80;;;11.13;;
8260;SDS011;64115;50.170;8.242;2023-02-15T14:56:06;15.30;;;10.80;;
8260;SDS011;64115;50.170;8.242;2023-02-15T14:58:58;20.67;;;12.30;;
8260;SDS011;64115;50.170;8.242;2023-02-15T15:01:41;17.30;;;11.83;;
8260;SDS011;64115;50.170;8.242;2023-02-15T15:04:21;16.70;;;11.53;;
8260;SDS011;64115;50.170;8.242;2023-02-15T15:06:58;19.23;;;12.67;;
8260;SDS011;64115;50.170;8.242;2023-02-15T15:09:35;17.07;;;11.47;;
8260;SDS011;64115;50.170;8.242;2023-02-15T15:12:14;16.53;;;10.93;;
8260;SDS011;64115;50.170;8.242;2023-02-15T15:14:57;16.27;;;11.20;;
8260;SDS011;64115;50.170;8.242;2023-02-15T15:20:40;16.77;;;11.30;;
8260;SDS011;64115;50.170;8.242;2023-02-15T15:26:29;16.83;;;11.70;;
8260;SDS011;64115;50.170;8.242;2023-02-15T15:29:03;17.07;;;11.90;;
8260;SDS011;64115;50.170;8.242;2023-02-15T15:31:41;17.87;;;11.77;;